Time;durP1;ratioP1;P1;durP2;ratioP2;P2;SDS_P1;SDS_P2;PMS_P1;PMS_P2;Temp;Humidity;BMP_temperature;BMP_pressure;BME280_temperature;BME280_humidity;BME280_pressure;Samples;Min_cycle;Max_cycle;Signal;HPM_P1;HPM_P2
2022/09/06 00:00:42;;;;;;;4.63;4.47;;;;;;;18.07;75.33;66090.72;5117195;28;20210;-74
2022/09/06 00:03:08;;;;;;;5.17;4.50;;;;;;;18.06;75.21;66089.59;5117784;28;20230;-74
2022/09/06 00:05:35;;;;;;;3.80;3.77;;;;;;;;;;5117575;28;20188;-74
2022/09/06 00:08:02;;;;;;;4.90;4.50;;;;;;;;;;5118337;28;20213;-74
2022/09/06 00:10:29;;;;;;;5.10;4.80;;;;;;;18.04;75.24;66093.19;5102556;28;20239;-74
2022/09/06 00:12:59;;;;;;;4.77;4.67;;;;;;;;;;5116504;28;20589;-74
2022/09/06 00:15:25;;;;;;;5.43;5.00;;;;;;;18.00;75.44;66088.72;5116970;28;20577;-74
2022/09/06 00:17:52;;;;;;;4.73;4.40;;;;;;;;;;5116272;28;20201;-73
2022/09/06 00:20:18;;;;;;;4.40;4.33;;;;;;;18.00;75.54;66083.47;5115697;28;20646;-73
2022/09/06 00:22:44;;;;;;;4.53;4.37;;;;;;;18.03;75.73;66094.69;5116499;28;20181;-73
2022/09/06 00:25:11;;;;;;;4.97;4.80;;;;;;;18.05;75.82;66091.09;5116213;28;20689;-73
2022/09/06 00:27:37;;;;;;;4.70;4.30;;;;;;;;;;5116338;28;20201;-73
2022/09/06 00:30:04;;;;;;;7.87;4.93;;;;;;;18.05;75.71;66088.47;5115510;28;20238;-73
2022/09/06 00:32:31;;;;;;;5.03;4.73;;;;;;;18.06;75.86;66089.59;5098152;28;20181;-73
2022/09/06 00:34:57;;;;;;;6.13;4.50;;;;;;;18.07;75.71;66093.34;5115634;28;20719;-73
2022/09/06 00:37:24;;;;;;;5.43;4.13;;;;;;;18.06;75.72;66089.59;5115841;28;20205;-73
2022/09/06 00:39:50;;;;;;;5.30;4.27;;;;;;;18.06;75.50;66092.22;5115885;28;20217;-75
2022/09/06 00:42:17;;;;;;;5.00;4.67;;;;;;;18.06;75.59;66097.47;5115511;28;20195;-74
2022/09/06 00:44:43;;;;;;;5.17;4.87;;;;;;;;;;5115219;28;20189;-74
2022/09/06 00:47:09;;;;;;;5.43;5.03;;;;;;;18.00;75.89;66085.53;5115097;28;20232;-73
2022/09/06 00:49:38;;;;;;;5.20;5.00;;;;;;;;;;5115789;28;20184;-73
2022/09/06 00:52:11;;;;;;;5.07;4.83;;;;;;;17.54;77.19;66035.31;5115027;28;20240;-75
2022/09/06 00:54:39;;;;;;;5.33;4.87;;;;;;;17.50;77.23;66033.47;5115396;28;20537;-75
2022/09/06 00:57:05;;;;;;;6.03;5.83;;;;;;;17.31;78.50;66015.47;5114956;28;20231;-74
2022/09/06 00:59:35;;;;;;;6.00;5.83;;;;;;;17.37;78.61;66013.75;5114976;28;20217;-74
2022/09/06 01:02:01;;;;;;;5.00;4.90;;;;;;;;;;5113985;28;20659;-74
2022/09/06 01:04:28;;;;;;;8.23;5.90;;;;;;;17.40;78.59;66019.69;5114823;28;20200;-74
2022/09/06 01:07:22;;;;;;;5.90;5.40;;;;;;;17.41;79.03;66018.19;5114994;28;20209;-73
2022/09/06 01:10:13;;;;;;;5.63;5.53;;;;;;;17.42;78.91;66022.47;5115295;28;20189;-73
2022/09/06 01:13:19;;;;;;;6.33;5.80;;;;;;;17.52;78.50;66030.47;5114667;28;20553;-73
2022/09/06 01:15:55;;;;;;;6.20;6.10;;;;;;;;;;5096227;28;20197;-73
2022/09/06 01:18:22;;;;;;;6.03;5.63;;;;;;;;;;5114638;28;20709;-73
2022/09/06 01:21:16;;;;;;;5.60;5.40;;;;;;;17.46;79.11;66026.94;5096607;28;20184;-74
2022/09/06 01:24:06;;;;;;;5.27;5.00;;;;;;;17.46;79.33;66031.66;5114716;28;20177;-75
2022/09/06 01:26:55;;;;;;;6.00;5.90;;;;;;;17.47;79.13;66025.44;5114332;28;20165;-74
2022/09/06 01:29:37;;;;;;;5.77;5.50;;;;;;;17.54;78.93;66033.25;5114394;28;20174;-74
2022/09/06 01:32:22;;;;;;;6.10;5.70;;;;;;;17.72;77.49;66055.41;5114181;28;20200;-74
2022/09/06 01:35:01;;;;;;;8.07;5.77;;;;;;;17.71;77.75;66053.72;5114244;28;20192;-74
2022/09/06 01:37:28;;;;;;;6.47;6.10;;;;;;;17.65;78.20;66050.22;5114436;28;20220;-74
2022/09/06 01:39:54;;;;;;;6.70;6.43;;;;;;;17.83;78.27;66065.06;5114488;28;20209;-74
2022/09/06 01:42:25;;;;;;;8.53;6.37;;;;;;;17.78;79.23;66061.53;5114150;28;20205;-74
2022/09/06 01:44:56;;;;;;;7.97;7.33;;;;;;;17.82;78.64;66068.63;5114458;28;20574;-74
2022/09/06 01:47:36;;;;;;;7.47;6.37;;;;;;;17.81;78.20;66065.44;5114250;28;20257;-74
2022/09/06 01:50:20;;;;;;;9.33;6.10;;;;;;;17.83;77.73;66072.94;5114359;28;20177;-74
2022/09/06 01:53:01;;;;;;;10.13;5.83;;;;;;;17.75;78.39;66058.19;5114121;28;20173;-74
2022/09/06 01:55:34;;;;;;;7.33;6.63;;;;;;;17.68;78.86;66047.75;5113995;28;20182;-74
2022/09/06 01:58:26;;;;;;;5.97;5.37;;;;;;;17.72;78.64;66058.03;5114149;28;20686;-74
2022/09/06 02:01:01;;;;;;;8.43;5.17;;;;;;;17.76;78.42;66062.50;5114498;28;20177;-74
2022/09/06 02:03:42;;;;;;;6.43;5.87;;;;;;;17.71;78.60;66051.09;5113858;28;20631;-74
2022/09/06 02:06:15;;;;;;;6.20;5.50;;;;;;;17.69;78.93;66057.28;5114309;28;20202;-74
2022/09/06 02:08:49;;;;;;;10.30;5.50;;;;;;;17.61;79.40;66048.38;5113734;28;20557;-74
2022/09/06 02:11:16;;;;;;;5.57;5.57;;;;;;;17.77;79.29;66068.88;5113756;28;20209;-75
2022/09/06 02:13:56;;;;;;;5.53;5.03;;;;;;;17.72;79.91;66060.13;5113731;28;20187;-75
2022/09/06 02:16:26;;;;;;;5.73;4.80;;;;;;;17.71;80.57;66053.72;5113727;28;20177;-74
2022/09/06 02:18:58;;;;;;;13.43;5.30;;;;;;;17.64;80.93;66043.28;5113569;28;20209;-74
2022/09/06 02:21:34;;;;;;;4.67;4.40;;;;;;;17.60;81.78;66047.81;5113939;28;20165;-74
2022/09/06 02:24:07;;;;;;;5.37;4.90;;;;;;;17.69;81.87;66052.03;5113618;28;20176;-74
2022/09/06 02:26:39;;;;;;;5.60;5.10;;;;;;;17.59;82.72;66040.91;5113756;28;20611;-74
2022/09/06 02:29:05;;;;;;;5.23;5.03;;;;;;;;;;5113591;28;20231;-75
2022/09/06 02:31:43;;;;;;;10.83;4.90;;;;;;;17.66;83.52;66048.16;5113409;28;20200;-75
2022/09/06 02:34:14;;;;;;;5.53;5.43;;;;;;;17.67;84.48;66049.81;5114091;28;20630;-76
2022/09/06 02:36:40;;;;;;;5.17;5.07;;;;;;;17.57;85.59;66044.47;5113765;28;20201;-74
2022/09/06 02:39:07;;;;;;;5.40;5.30;;;;;;;;;;5114094;28;20209;-75
2022/09/06 02:41:33;;;;;;;4.97;4.90;;;;;;;;;;5095286;28;20189;-75
2022/09/06 02:44:00;;;;;;;6.10;5.67;;;;;;;17.55;86.94;66033.81;5113720;28;20230;-75
2022/09/06 02:46:26;;;;;;;5.53;5.43;;;;;;;17.55;88.23;66033.81;5113652;28;20587;-75
2022/09/06 02:48:53;;;;;;;6.23;5.50;;;;;;;17.51;89.28;66031.97;5113596;28;20207;-75
2022/09/06 02:51:20;;;;;;;5.83;5.43;;;;;;;17.37;91.88;66019.00;5113642;28;20209;-75
2022/09/06 02:53:46;;;;;;;5.70;5.27;;;;;;;;;;5113421;28;20207;-75
2022/09/06 02:56:12;;;;;;;9.80;5.23;;;;;;;;;;5113329;28;20216;-75
2022/09/06 02:58:39;;;;;;;8.43;5.03;;;;;;;17.33;94.08;66005.13;5113291;28;20232;-75
2022/09/06 03:01:05;;;;;;;7.43;5.60;;;;;;;17.40;95.07;66019.69;5113297;28;20177;-75
2022/09/06 03:03:32;;;;;;;5.43;5.27;;;;;;;17.26;95.27;66007.81;5113381;28;20177;-75
2022/09/06 03:05:58;;;;;;;5.10;4.77;;;;;;;17.18;96.59;66004.16;5113324;28;20234;-75
2022/09/06 03:08:28;;;;;;;5.07;4.90;;;;;;;17.17;96.99;66000.41;5095129;28;20221;-75
2022/09/06 03:10:55;;;;;;;5.07;4.97;;;;;;;17.14;97.03;65989.19;5113068;28;20217;-75
2022/09/06 03:13:23;;;;;;;5.60;5.40;;;;;;;17.12;98.69;65994.28;5113180;28;20217;-75
2022/09/06 03:15:50;;;;;;;5.70;5.13;;;;;;;;;;5113159;28;20196;-75
2022/09/06 03:18:16;;;;;;;5.53;5.43;;;;;;;;;;5113143;28;20236;-74
2022/09/06 03:20:43;;;;;;;7.30;5.97;;;;;;;17.07;100.00;65981.38;5113154;28;20220;-74
2022/09/06 03:23:09;;;;;;;5.90;5.20;;;;;;;17.09;100.00;65978.38;5113402;28;20520;-74
2022/09/06 03:25:36;;;;;;;5.17;4.97;;;;;;;17.11;100.00;65985.31;5115714;28;20181;-74
2022/09/06 03:28:02;;;;;;;5.70;5.60;;;;;;;17.19;100.00;66002.09;5116963;28;20599;-74
2022/09/06 03:30:29;;;;;;;5.20;5.20;;;;;;;17.22;99.53;66000.75;5116661;28;20215;-74
2022/09/06 03:32:55;;;;;;;6.57;5.07;;;;;;;17.29;99.09;66005.94;5116510;28;20683;-74
2022/09/06 03:35:26;;;;;;;5.50;4.97;;;;;;;17.29;99.10;66005.94;5116848;28;20260;-74
2022/09/06 03:37:52;;;;;;;5.87;5.67;;;;;;;17.22;99.25;65998.13;5098140;28;20217;-74
2022/09/06 03:40:18;;;;;;;5.70;5.50;;;;;;;17.14;100.00;65991.81;5116484;28;20192;-74
2022/09/06 03:42:45;;;;;;;4.40;4.30;;;;;;;17.09;100.00;65977.84;5116349;28;20169;-74
2022/09/06 03:45:11;;;;;;;4.97;4.87;;;;;;;17.19;100.00;65999.47;5116413;28;20616;-74
2022/09/06 03:47:38;;;;;;;4.90;4.60;;;;;;;17.15;100.00;65995.56;5116218;28;20247;-74
2022/09/06 03:50:05;;;;;;;5.67;5.17;;;;;;;16.97;100.00;65978.69;5116188;28;20185;-74
2022/09/06 03:52:32;;;;;;;4.70;4.63;;;;;;;;;;5116395;28;20614;-74
2022/09/06 03:54:58;;;;;;;5.50;4.97;;;;;;;16.92;100.00;65967.28;5116418;28;20220;-74
2022/09/06 03:57:25;;;;;;;6.00;5.47;;;;;;;16.95;100.00;65968.03;5116399;28;20220;-74
2022/09/06 03:59:51;;;;;;;6.17;5.80;;;;;;;16.87;100.00;65959.13;5116401;28;20186;-74
2022/09/06 04:02:17;;;;;;;5.77;5.23;;;;;;;16.91;100.00;65966.19;5116079;28;20181;-74
2022/09/06 04:04:44;;;;;;;6.07;5.77;;;;;;;16.96;100.00;65974.94;5116345;28;20181;-74
2022/09/06 04:07:10;;;;;;;6.10;5.80;;;;;;;17.03;100.00;65980.13;5116378;28;20259;-74
2022/09/06 04:09:37;;;;;;;11.27;5.50;;;;;;;;;;5115970;28;20609;-74
2022/09/06 04:12:03;;;;;;;6.03;5.73;;;;;;;17.02;100.00;65981.63;5115746;28;20619;-74
2022/09/06 04:14:30;;;;;;;5.90;5.53;;;;;;;;;;5115831;28;20655;-74
2022/09/06 04:16:56;;;;;;;4.70;4.60;;;;;;;;;;5115739;28;20232;-74
2022/09/06 04:19:22;;;;;;;5.43;5.30;;;;;;;17.02;100.00;65978.44;5116263;28;20243;-74
2022/09/06 04:21:49;;;;;;;4.77;4.67;;;;;;;16.98;100.00;65974.53;5115991;28;20173;-74
2022/09/06 04:24:15;;;;;;;5.93;5.83;;;;;;;16.97;100.00;65972.88;5115629;28;20537;-74
2022/09/06 04:26:42;;;;;;;5.27;5.17;;;;;;;;;;5115493;28;20185;-74
2022/09/06 04:29:08;;;;;;;6.37;5.87;;;;;;;16.81;100.00;65952.44;5115470;28;20193;-74
2022/09/06 04:31:34;;;;;;;5.40;5.30;;;;;;;;;;5115734;28;20197;-75
2022/09/06 04:34:01;;;;;;;5.60;5.40;;;;;;;;;;5115636;28;20189;-75
2022/09/06 04:36:28;;;;;;;6.13;5.87;;;;;;;16.81;100.00;65955.03;5115821;28;20227;-75
2022/09/06 04:38:54;;;;;;;5.73;5.63;;;;;;;;;;5115275;28;20241;-74
2022/09/06 04:41:21;;;;;;;5.27;5.13;;;;;;;16.79;100.00;65953.38;5115278;28;20186;-74
2022/09/06 04:43:48;;;;;;;4.90;4.47;;;;;;;16.80;100.00;65953.94;5115441;28;20264;-74
2022/09/06 04:46:18;;;;;;;6.03;5.70;;;;;;;;;;5115771;28;20181;-74
2022/09/06 04:48:45;;;;;;;10.13;5.97;;;;;;;16.72;100.00;65943.50;5115682;28;20216;-73
2022/09/06 04:51:12;;;;;;;7.27;6.67;;;;;;;16.71;100.00;65944.44;5115007;28;20214;-74
2022/09/06 04:53:38;;;;;;;6.97;6.67;;;;;;;;;;5115529;28;20222;-74
2022/09/06 04:56:05;;;;;;;7.37;6.83;;;;;;;;;;5114987;28;20189;-74
2022/09/06 04:58:31;;;;;;;6.17;5.73;;;;;;;16.61;100.00;65933.84;5114892;28;20208;-74
2022/09/06 05:00:58;;;;;;;6.20;6.10;;;;;;;16.55;100.00;65942.31;5114931;28;20193;-74
2022/09/06 05:03:24;;;;;;;5.53;5.33;;;;;;;16.53;100.00;65930.19;5114842;28;20268;-74
2022/09/06 05:05:50;;;;;;;6.20;5.80;;;;;;;;;;5114791;28;20189;-74
2022/09/06 05:08:17;;;;;;;5.60;5.47;;;;;;;16.57;100.00;65934.06;5096816;28;20233;-74
2022/09/06 05:10:44;;;;;;;5.57;5.47;;;;;;;16.56;100.00;65933.50;5114544;28;20185;-74
2022/09/06 05:13:10;;;;;;;8.63;6.50;;;;;;;16.56;100.00;65928.25;5114886;28;20610;-74
2022/09/06 05:15:36;;;;;;;6.27;5.97;;;;;;;;;;5114564;28;20659;-74
2022/09/06 05:18:04;;;;;;;6.23;5.93;;;;;;;16.50;100.00;65913.72;5114752;28;20205;-75
2022/09/06 05:20:30;;;;;;;8.90;7.77;;;;;;;16.36;100.00;65911.22;5114785;28;20611;-75
2022/09/06 05:22:56;;;;;;;7.77;7.37;;;;;;;16.21;100.00;65892.44;5114740;28;20215;-75
2022/09/06 05:25:23;;;;;;;7.87;7.37;;;;;;;16.12;100.00;65880.38;5114641;28;20216;-74
2022/09/06 05:27:49;;;;;;;8.90;8.33;;;;;;;16.02;100.00;65871.84;5114238;28;20237;-74
2022/09/06 05:30:17;;;;;;;8.07;7.67;;;;;;;15.97;100.00;65866.28;5114573;28;20177;-74
2022/09/06 05:32:43;;;;;;;8.30;7.80;;;;;;;;;;5114126;28;20204;-74
2022/09/06 05:35:09;;;;;;;7.67;7.37;;;;;;;15.98;100.00;65864.78;5114638;28;20216;-74
2022/09/06 05:37:36;;;;;;;8.80;8.13;;;;;;;15.99;100.00;65865.31;5114086;28;20205;-74
2022/09/06 05:40:02;;;;;;;11.10;7.50;;;;;;;16.02;100.00;65873.91;5114161;28;20238;-74
2022/09/06 05:42:29;;;;;;;7.90;7.50;;;;;;;16.04;100.00;65868.28;5114012;28;20185;-74
2022/09/06 05:44:55;;;;;;;7.50;7.10;;;;;;;16.15;100.00;65885.78;5114028;28;20219;-74
2022/09/06 05:47:22;;;;;;;7.57;7.03;;;;;;;;;;5113504;28;20204;-74
2022/09/06 05:49:48;;;;;;;7.03;6.67;;;;;;;;;;5114263;28;20610;-74
2022/09/06 05:52:16;;;;;;;6.80;6.47;;;;;;;;;;5113907;28;20236;-74
2022/09/06 05:54:42;;;;;;;6.60;6.10;;;;;;;;;;5114529;28;20207;-74
2022/09/06 05:57:08;;;;;;;9.63;7.20;;;;;;;16.41;100.00;65916.78;5114058;28;20253;-74
2022/09/06 05:59:35;;;;;;;12.23;6.30;;;;;;;;;;5113868;28;20612;-74
2022/09/06 06:02:01;;;;;;;7.93;7.30;;;;;;;16.55;100.00;65929.22;5113782;28;20213;-74
2022/09/06 06:04:32;;;;;;;7.57;7.10;;;;;;;16.46;100.00;65917.69;5114054;28;20177;-75
2022/09/06 06:06:59;;;;;;;6.80;6.50;;;;;;;16.47;100.00;65920.88;5113813;28;20223;-74
2022/09/06 06:09:25;;;;;;;7.03;6.70;;;;;;;16.48;100.00;65925.16;5113781;28;20238;-75
2022/09/06 06:11:51;;;;;;;6.80;6.50;;;;;;;16.44;100.00;65922.78;5113932;28;20240;-75
2022/09/06 06:14:18;;;;;;;6.43;6.03;;;;;;;16.48;100.00;65919.91;5113734;28;20189;-75
2022/09/06 06:16:44;;;;;;;5.97;5.77;;;;;;;;;;5113937;28;20224;-73
2022/09/06 06:19:11;;;;;;;6.20;5.80;;;;;;;;;;5113615;28;20242;-74
2022/09/06 06:21:37;;;;;;;7.43;6.60;;;;;;;16.86;100.00;65982.16;5113655;28;20223;-74
2022/09/06 06:24:05;;;;;;;6.73;6.37;;;;;;;16.92;100.00;65969.91;5113908;28;20235;-74
2022/09/06 06:26:32;;;;;;;6.47;6.30;;;;;;;;;;5113595;28;20181;-74
2022/09/06 06:29:01;;;;;;;8.13;6.13;;;;;;;17.06;100.00;65980.84;5113614;28;20201;-74
2022/09/06 06:31:28;;;;;;;7.33;7.03;;;;;;;17.15;100.00;65992.94;5113773;28;20213;-75
2022/09/06 06:33:55;;;;;;;6.13;5.83;;;;;;;17.23;100.00;66004.50;5114143;28;20181;-75
2022/09/06 06:36:24;;;;;;;5.83;5.30;;;;;;;17.41;100.00;66026.06;5113670;28;20185;-74
2022/09/06 06:38:54;;;;;;;5.33;5.00;;;;;;;17.53;99.41;66034.19;5113425;28;20247;-74
2022/09/06 06:41:23;;;;;;;4.70;4.60;;;;;;;17.72;96.58;66052.78;5113503;28;20182;-74
2022/09/06 06:44:01;;;;;;;5.33;5.07;;;;;;;17.76;96.87;66059.88;5113684;28;20203;-74
2022/09/06 06:46:30;;;;;;;4.83;4.63;;;;;;;17.89;96.15;66073.81;5113773;28;20173;-74
2022/09/06 06:48:57;;;;;;;5.37;5.17;;;;;;;17.93;96.28;66080.34;5113359;28;20244;-74
2022/09/06 06:51:25;;;;;;;4.20;4.13;;;;;;;;;;5113367;28;20201;-74
2022/09/06 06:53:51;;;;;;;4.60;4.30;;;;;;;18.07;95.25;66093.34;5113258;28;20198;-74
2022/09/06 06:56:18;;;;;;;4.90;4.50;;;;;;;;;;5113352;28;20268;-74
2022/09/06 06:58:47;;;;;;;5.23;4.83;;;;;;;18.22;94.54;66120.59;5113264;28;20574;-73
2022/09/06 07:01:15;;;;;;;4.80;4.50;;;;;;;18.29;93.78;66120.53;5116833;28;20217;-74
2022/09/06 07:03:42;;;;;;;4.27;4.17;;;;;;;18.37;93.21;66126.28;5116996;28;20181;-74
2022/09/06 07:06:08;;;;;;;5.20;4.70;;;;;;;18.46;93.16;66141.00;5112087;28;20201;-73
2022/09/06 07:08:40;;;;;;;4.63;4.33;;;;;;;18.58;92.78;66139.19;5104372;28;20216;-75
2022/09/06 07:11:09;;;;;;;4.23;3.93;;;;;;;18.70;92.25;66165.19;5116801;28;20204;-73
2022/09/06 07:13:36;;;;;;;4.77;4.37;;;;;;;18.85;89.91;66179.31;5116956;28;20197;-74
2022/09/06 07:16:22;;;;;;;6.27;4.30;;;;;;;18.94;90.09;66196.69;5116237;28;20251;-74
2022/09/06 07:18:53;;;;;;;4.40;4.10;;;;;;;19.07;89.44;66200.69;5107698;28;20212;-74
2022/09/06 07:21:25;;;;;;;3.80;3.80;;;;;;;19.21;87.81;66215.75;5113191;28;20185;-74
2022/09/06 07:24:07;;;;;;;4.50;4.30;;;;;;;;;;5112442;28;20193;-73
2022/09/06 07:26:36;;;;;;;3.90;3.90;;;;;;;19.47;84.26;66247.44;5113626;28;20659;-74
2022/09/06 07:29:04;;;;;;;4.10;3.90;;;;;;;19.62;83.58;66263.66;5115856;28;20189;-73
2022/09/06 07:31:32;;;;;;;3.57;3.47;;;;;;;19.77;82.63;66280.41;5111977;28;20698;-74
2022/09/06 07:34:19;;;;;;;3.67;3.40;;;;;;;19.96;82.44;66301.09;5114864;28;20280;-73
2022/09/06 07:36:45;;;;;;;2.63;2.53;;;;;;;20.03;82.03;66300.44;5112396;28;20193;-73
2022/09/06 07:39:12;;;;;;;3.67;3.43;;;;;;;20.10;81.42;66313.53;5115566;28;20201;-72
2022/09/06 07:41:39;;;;;;;6.63;3.20;;;;;;;20.28;81.76;66341.00;5116411;28;20209;-74
2022/09/06 07:44:05;;;;;;;6.07;2.77;;;;;;;;;;5111355;28;20216;-74
2022/09/06 07:46:31;;;;;;;3.30;2.43;;;;;;;;;;5114320;28;20185;-72
2022/09/06 07:48:58;;;;;;;3.03;2.57;;;;;;;;;;5113177;28;20243;-72
2022/09/06 07:51:24;;;;;;;3.70;3.03;;;;;;;20.65;79.24;66373.94;5113139;28;20273;-72
2022/09/06 07:53:56;;;;;;;3.60;2.50;;;;;;;20.75;77.16;66387.19;5116051;28;20632;-72
2022/09/06 07:56:43;;;;;;;2.10;2.00;;;;;;;20.92;76.36;66403.00;5112541;28;20182;-72
2022/09/06 07:59:09;;;;;;;4.10;2.20;;;;;;;21.02;75.93;66414.19;5110871;28;20271;-74
2022/09/06 08:01:37;;;;;;;7.73;2.50;;;;;;;21.11;75.43;66424.81;5111829;28;20250;-74
2022/09/06 08:04:13;;;;;;;2.80;2.57;;;;;;;;;;5112307;28;20181;-74
2022/09/06 08:06:41;;;;;;;2.50;2.43;;;;;;;;;;5115819;28;20204;-74
2022/09/06 08:09:27;;;;;;;2.17;2.03;;;;;;;;;;5115735;28;20193;-74
2022/09/06 08:11:54;;;;;;;5.60;2.20;;;;;;;21.56;74.16;66474.06;5114854;28;20201;-74
2022/09/06 08:14:20;;;;;;;2.17;2.17;;;;;;;;;;5114114;28;20217;-74
2022/09/06 08:16:46;;;;;;;2.80;2.80;;;;;;;21.86;72.74;66507.09;5115761;28;20272;-74
2022/09/06 08:19:13;;;;;;;2.73;2.10;;;;;;;21.98;72.54;66519.94;5115808;28;20224;-74
2022/09/06 08:21:39;;;;;;;2.00;1.67;;;;;;;;;;5115952;28;20224;-74
2022/09/06 08:24:11;;;;;;;9.13;1.93;;;;;;;22.39;69.93;66564.75;5115664;28;20185;-74
2022/09/06 08:26:39;;;;;;;1.80;1.70;;;;;;;22.66;68.28;66595.00;5115831;28;20195;-73
2022/09/06 08:29:07;;;;;;;1.73;1.73;;;;;;;22.69;67.08;66603.09;5115596;28;20186;-74
2022/09/06 08:31:36;;;;;;;1.67;1.57;;;;;;;22.43;66.15;66575.09;5115326;28;20545;-74
2022/09/06 08:34:03;;;;;;;1.70;1.60;;;;;;;22.46;65.87;66575.81;5115395;28;20205;-75
2022/09/06 08:36:30;;;;;;;1.53;1.43;;;;;;;22.60;65.09;66588.28;5116042;28;20181;-74
2022/09/06 08:38:57;;;;;;;2.73;1.40;;;;;;;;;;5115277;28;20292;-74
2022/09/06 08:41:26;;;;;;;2.30;1.47;;;;;;;;;;5115527;28;20215;-74
2022/09/06 08:43:54;;;;;;;1.77;1.77;;;;;;;;;;5115281;28;20189;-74
2022/09/06 08:46:45;;;;;;;1.63;1.63;;;;;;;22.89;65.51;66614.94;5115081;28;20657;-74
2022/09/06 08:49:12;;;;;;;1.57;1.57;;;;;;;23.03;64.54;66635.91;5115189;28;20201;-74
2022/09/06 08:51:49;;;;;;;1.45;1.35;;;;;;;23.05;65.48;66637.59;5115098;28;20216;-74
2022/09/06 08:54:39;;;;;;;1.27;1.27;;;;;;;;;;5115591;28;20212;-74
2022/09/06 08:57:43;;;;;;;11.57;1.58;;;;;;;23.39;62.18;66674.56;5101943;28;20648;-74
2022/09/06 09:00:12;;;;;;;2.35;1.52;;;;;;;23.56;61.36;66694.19;5114932;28;20188;-74
2022/09/06 09:02:44;;;;;;;4.18;1.40;;;;;;;;;;5115208;28;20666;-74
2022/09/06 09:05:20;;;;;;;1.55;1.30;;;;;;;23.41;61.15;66676.81;5114840;28;20643;-74
2022/09/06 09:08:03;;;;;;;1.42;1.42;;;;;;;23.59;60.89;66697.00;5115058;28;20683;-74
2022/09/06 09:10:31;;;;;;;1.25;1.20;;;;;;;;;;5114915;28;20212;-74
2022/09/06 09:12:59;;;;;;;5.97;1.30;;;;;;;;;;5114993;28;20236;-74
2022/09/06 09:15:27;;;;;;;1.20;1.20;;;;;;;;;;5114856;28;20647;-74
2022/09/06 09:17:54;;;;;;;1.30;1.20;;;;;;;24.08;59.46;66751.38;5114685;28;20203;-74
2022/09/06 09:20:21;;;;;;;1.05;1.05;;;;;;;;;;5114538;28;20185;-74
2022/09/06 09:22:48;;;;;;;2.13;1.17;;;;;;;23.99;57.57;66743.94;5114318;28;20218;-74
2022/09/06 09:25:22;;;;;;;1.20;1.20;;;;;;;24.03;57.69;66745.78;5114513;28;20181;-74
2022/09/06 09:27:56;;;;;;;1.95;0.90;;;;;;;24.00;58.43;66737.09;5115032;28;20205;-74
2022/09/06 09:30:25;;;;;;;5.10;1.15;;;;;;;23.83;59.58;66723.91;5114709;28;20200;-74
2022/09/06 09:33:35;;;;;;;2.05;1.00;;;;;;;23.79;60.41;66718.84;5114074;28;20644;-74
2022/09/06 09:36:05;;;;;;;1.88;1.40;;;;;;;;;;5096050;28;20238;-74
2022/09/06 09:38:41;;;;;;;1.20;1.20;;;;;;;24.00;59.48;66745.06;5114213;28;20261;-74
2022/09/06 09:41:07;;;;;;;2.03;1.00;;;;;;;;;;5114806;28;20165;-74
2022/09/06 09:43:40;;;;;;;4.70;0.95;;;;;;;23.91;57.22;66731.75;5096395;28;20647;-74
2022/09/06 09:46:09;;;;;;;1.95;0.90;;;;;;;;;;5114173;28;20234;-74
2022/09/06 09:48:36;;;;;;;5.15;1.30;;;;;;;23.72;58.22;66711.59;5113983;28;20201;-74
2022/09/06 09:51:22;;;;;;;0.98;0.98;;;;;;;23.60;58.94;66698.69;5114056;28;20568;-75
2022/09/06 09:53:58;;;;;;;3.30;0.82;;;;;;;23.55;57.93;66698.34;5114262;28;20674;-75
2022/09/06 09:56:50;;;;;;;3.22;1.25;;;;;;;23.59;58.01;66697.56;5113956;28;20185;-75
2022/09/06 09:59:16;;;;;;;1.20;1.20;;;;;;;;;;5113970;28;20173;-75
2022/09/06 10:01:43;;;;;;;2.78;1.15;;;;;;;;;;5113874;28;20309;-75
2022/09/06 10:04:10;;;;;;;1.42;1.02;;;;;;;;;;5113895;28;20233;-75
2022/09/06 10:07:08;;;;;;;1.00;1.00;;;;;;;;;;5113611;28;20205;-74
2022/09/06 10:09:38;;;;;;;1.80;1.80;;;;;;;24.06;57.58;66749.13;5114100;28;20169;-74
2022/09/06 10:12:05;;;;;;;3.83;0.90;;;;;;;24.28;56.14;66773.25;5113762;28;20242;-74
2022/09/06 10:14:43;;;;;;;0.98;0.98;;;;;;;24.39;56.22;66788.25;5106305;28;20635;-73
2022/09/06 10:17:20;;;;;;;1.10;1.10;;;;;;;;;;5110853;28;20710;-74
2022/09/06 10:19:47;;;;;;;2.05;1.00;;;;;;;;;;5111942;28;20188;-72
2022/09/06 10:22:19;;;;;;;0.80;0.80;;;;;;;;;;5110329;28;20193;-74
2022/09/06 10:24:55;;;;;;;1.33;1.33;;;;;;;;;;5110608;28;20227;-74
2022/09/06 10:27:24;;;;;;;0.93;0.90;;;;;;;;;;5111810;28;20249;-74
2022/09/06 10:30:04;;;;;;;3.90;1.30;;;;;;;24.09;56.38;66752.50;5109935;28;20192;-74
2022/09/06 10:32:40;;;;;;;1.15;1.15;;;;;;;;;;5109588;28;20185;-74
2022/09/06 10:35:19;;;;;;;1.00;1.00;;;;;;;;;;5111005;28;20658;-74
2022/09/06 10:37:50;;;;;;;1.10;1.10;;;;;;;24.16;56.37;66759.78;5115513;28;20717;-74
2022/09/06 10:40:20;;;;;;;0.90;0.90;;;;;;;;;;5114082;28;20241;-74
2022/09/06 10:42:52;;;;;;;0.80;0.80;;;;;;;24.32;56.54;66779.84;5116534;28;20185;-74
2022/09/06 10:45:22;;;;;;;1.00;1.00;;;;;;;;;;5112923;28;20188;-75
2022/09/06 10:47:56;;;;;;;1.25;1.02;;;;;;;;;;5110915;28;20212;-74
2022/09/06 10:50:40;;;;;;;4.88;1.00;;;;;;;24.73;54.46;66825.28;5107754;28;20595;-74
2022/09/06 10:53:12;;;;;;;1.10;1.10;;;;;;;24.71;54.68;66820.94;5112339;28;20679;-74
2022/09/06 10:55:39;;;;;;;6.93;1.50;;;;;;;;;;5112910;28;20214;-74
2022/09/06 10:58:10;;;;;;;1.25;1.25;;;;;;;24.89;54.96;66843.25;5110510;28;20262;-74
2022/09/06 11:00:46;;;;;;;2.83;1.55;;;;;;;;;;5107126;28;20189;-74
2022/09/06 11:03:19;;;;;;;1.10;1.10;;;;;;;25.17;54.41;66870.91;5107136;28;20193;-73
2022/09/06 11:06:07;;;;;;;3.08;1.52;;;;;;;24.93;53.94;66844.50;5115541;28;20224;-74
2022/09/06 11:08:49;;;;;;;2.38;1.40;;;;;;;24.97;54.76;66849.56;5113818;28;20209;-74
2022/09/06 11:11:34;;;;;;;1.33;1.33;;;;;;;;;;5115362;28;20211;-74
2022/09/06 11:14:08;;;;;;;2.60;1.17;;;;;;;24.84;54.52;66839.72;5113807;28;20557;-74
2022/09/06 11:16:40;;;;;;;1.20;1.20;;;;;;;;;;5115153;28;20189;-73
2022/09/06 11:19:16;;;;;;;1.38;1.30;;;;;;;;;;5108144;28;20193;-74
2022/09/06 11:22:04;;;;;;;1.15;1.15;;;;;;;25.52;53.40;66912.28;5115960;28;20188;-74
2022/09/06 11:24:39;;;;;;;1.45;1.30;;;;;;;;;;5116099;28;20189;-74
2022/09/06 11:27:36;;;;;;;5.28;1.30;;;;;;;25.78;52.14;66940.94;5116406;28;20216;-74
2022/09/06 11:30:04;;;;;;;1.20;1.10;;;;;;;;;;5116877;28;20231;-74
2022/09/06 11:32:38;;;;;;;1.85;1.27;;;;;;;;;;5117252;28;20185;-74
2022/09/06 11:35:09;;;;;;;1.30;1.30;;;;;;;26.11;51.40;66974.78;5106129;28;20606;-74
2022/09/06 11:37:41;;;;;;;7.82;1.67;;;;;;;25.89;52.63;66950.63;5114226;28;20213;-74
2022/09/06 11:40:34;;;;;;;1.55;1.55;;;;;;;26.01;51.72;66966.22;5114290;28;20235;-74
2022/09/06 11:43:01;;;;;;;2.60;1.30;;;;;;;25.81;51.55;66941.66;5108636;28;20255;-74
2022/09/06 11:45:45;;;;;;;1.33;1.33;;;;;;;;;;5110423;28;20189;-74
2022/09/06 11:48:32;;;;;;;2.35;1.23;;;;;;;25.75;52.93;66938.13;5108137;28;20269;-74
2022/09/06 11:51:06;;;;;;;1.25;1.25;;;;;;;25.99;51.70;66961.84;5113746;28;20242;-74
2022/09/06 11:53:47;;;;;;;4.25;1.30;;;;;;;26.08;51.06;66973.50;5113279;28;20201;-73
2022/09/06 11:56:27;;;;;;;1.17;1.17;;;;;;;;;;5111894;28;20249;-74
2022/09/06 11:59:03;;;;;;;1.35;1.35;;;;;;;26.46;49.90;67008.22;5110630;28;20270;-74
2022/09/06 12:01:29;;;;;;;1.23;1.13;;;;;;;26.39;49.09;67000.38;5077437;28;20255;-73
2022/09/06 12:03:55;;;;;;;1.05;1.05;;;;;;;26.42;49.71;67003.72;5107148;28;20605;-74
2022/09/06 12:06:31;;;;;;;2.90;1.27;;;;;;;;;;5115398;28;20184;-74
2022/09/06 12:08:58;;;;;;;1.75;1.65;;;;;;;;;;5114004;28;20293;-74
2022/09/06 12:11:32;;;;;;;4.03;1.48;;;;;;;26.41;50.28;67007.38;5115999;28;20250;-74
2022/09/06 12:14:08;;;;;;;1.23;1.23;;;;;;;;;;5116137;28;20217;-74
2022/09/06 12:17:12;;;;;;;1.48;1.48;;;;;;;26.46;50.27;67018.88;5115991;28;20185;-74
2022/09/06 12:19:54;;;;;;;4.03;1.10;;;;;;;26.65;49.77;67033.75;5013508;28;20192;-75
2022/09/06 12:22:23;;;;;;;1.30;1.20;;;;;;;;;;5013963;28;20267;-75
2022/09/06 12:24:53;;;;;;;1.60;1.52;;;;;;;26.74;49.33;67043.91;5074416;28;20201;-74
2022/09/06 12:27:25;;;;;;;1.30;1.30;;;;;;;26.74;49.23;67046.56;5116126;28;20572;-75
2022/09/06 12:29:58;;;;;;;1.20;1.20;;;;;;;26.71;48.09;67043.16;5115627;28;20174;-74
2022/09/06 12:32:27;;;;;;;1.25;1.20;;;;;;;;;;5116431;28;20189;-74
2022/09/06 12:34:54;;;;;;;1.30;1.30;;;;;;;;;;5115360;28;20223;-75
2022/09/06 12:37:53;;;;;;;1.58;1.58;;;;;;;;;;5115134;28;20300;-75
2022/09/06 12:40:21;;;;;;;1.45;1.35;;;;;;;26.88;48.71;67060.19;5115378;28;20230;-75